Time;durP1;ratioP1;P1;durP2;ratioP2;P2;SDS_P1;SDS_P2;PMS_P1;PMS_P2;Temp;Humidity;BMP_temperature;BMP_pressure;BME280_temperature;BME280_humidity;BME280_pressure;Samples;Min_cycle;Max_cycle;Signal;HPM_P1;HPM_P2
2021/08/31 00:00:44;;;;;;;5.37;2.70;;;;;;;23.36;43.97;102164.34;4428555;32;20333;-67
2021/08/31 00:03:09;;;;;;;6.80;2.35;;;;;;;23.35;44.59;102167.69;4424624;32;20050;-67
2021/08/31 00:05:35;;;;;;;3.25;2.30;;;;;;;23.47;44.37;102180.97;4423194;32;20386;-67
2021/08/31 00:08:01;;;;;;;5.43;2.70;;;;;;;23.37;45.18;102173.72;4423962;32;20058;-67
2021/08/31 00:10:26;;;;;;;7.85;2.95;;;;;;;22.94;46.00;102165.78;4424578;32;20136;-67
2021/08/31 00:12:52;;;;;;;4.28;2.47;;;;;;;22.60;46.63;102172.87;4421699;32;20130;-67
2021/08/31 00:15:19;;;;;;;6.18;2.58;;;;;;;22.80;46.19;102166.53;4424766;32;20089;-67
2021/08/31 00:17:45;;;;;;;4.93;2.70;;;;;;;23.12;45.37;102174.25;4425310;32;20068;-67
2021/08/31 00:20:11;;;;;;;6.75;3.30;;;;;;;23.15;45.30;102174.06;4425325;32;20105;-67
2021/08/31 00:22:37;;;;;;;7.05;2.80;;;;;;;23.42;44.70;102170.97;4423444;32;20038;-67
2021/08/31 00:25:05;;;;;;;6.10;3.40;;;;;;;23.22;44.77;102167.94;4425004;32;20108;-67
2021/08/31 00:27:31;;;;;;;6.22;3.67;;;;;;;23.44;44.45;102173.34;4423936;32;20439;-67
2021/08/31 00:29:58;;;;;;;6.07;3.50;;;;;;;23.44;44.09;102168.38;4426434;32;20111;-67
2021/08/31 00:32:23;;;;;;;7.68;4.10;;;;;;;23.57;44.16;102170.97;4423169;32;20583;-67
2021/08/31 00:34:50;;;;;;;7.95;3.75;;;;;;;23.73;43.82;102161.84;4421310;32;20587;-67
2021/08/31 00:37:16;;;;;;;7.50;3.20;;;;;;;23.61;44.06;102167.91;4425701;32;20135;-67
2021/08/31 00:39:43;;;;;;;8.80;3.45;;;;;;;23.53;44.16;102162.53;4422943;32;20488;-67
2021/08/31 00:42:09;;;;;;;6.90;3.25;;;;;;;23.37;44.28;102165.91;4423530;32;20109;-67
2021/08/31 00:44:34;;;;;;;6.78;3.17;;;;;;;23.24;44.70;102168.28;4423343;32;20443;-67
2021/08/31 00:47:02;;;;;;;7.10;4.28;;;;;;;23.50;44.06;102172.16;4421666;32;20418;-67
2021/08/31 00:49:29;;;;;;;9.07;3.97;;;;;;;23.66;43.76;102173.75;4426250;32;20462;-67
2021/08/31 00:51:57;;;;;;;9.43;4.15;;;;;;;23.79;43.32;102170.56;4423955;32;20460;-67
2021/08/31 00:54:25;;;;;;;10.43;4.22;;;;;;;23.43;44.14;102163.94;4426025;32;20084;-67
2021/08/31 00:56:52;;;;;;;12.20;4.25;;;;;;;23.35;44.14;102167.69;4424229;32;20077;-67
2021/08/31 00:59:21;;;;;;;6.65;3.92;;;;;;;23.61;43.64;102165.81;4424803;32;21045;-67
2021/08/31 01:01:50;;;;;;;7.90;3.90;;;;;;;23.59;43.68;102161.87;4425387;32;20415;-67
2021/08/31 01:04:18;;;;;;;7.43;4.00;;;;;;;23.27;44.26;102167.28;4423935;32;20442;-67
2021/08/31 01:06:45;;;;;;;6.60;4.03;;;;;;;23.02;44.85;102161.25;4421886;32;20042;-67
2021/08/31 01:09:12;;;;;;;6.45;4.43;;;;;;;23.09;44.56;102163.75;4423134;32;20551;-67
2021/08/31 01:11:38;;;;;;;8.82;4.15;;;;;;;23.15;44.32;102159.72;4425104;32;20034;-67
2021/08/31 01:14:06;;;;;;;10.93;4.55;;;;;;;23.47;43.72;102169.47;4426129;32;20459;-67
2021/08/31 01:16:31;;;;;;;8.73;3.85;;;;;;;23.19;44.19;102163.16;4425912;32;20101;-67
2021/08/31 01:18:57;;;;;;;8.50;5.15;;;;;;;23.06;44.25;102156.09;4426084;32;20052;-67
2021/08/31 01:21:23;;;;;;;9.88;4.32;;;;;;;22.99;45.02;102167.97;4425764;32;20038;-67
2021/08/31 01:23:49;;;;;;;10.45;5.50;;;;;;;22.79;46.19;102171.47;4423240;32;20491;-67
2021/08/31 01:26:16;;;;;;;6.95;5.00;;;;;;;23.02;45.62;102167.81;4423833;32;20030;-67
2021/08/31 01:28:42;;;;;;;10.57;5.25;;;;;;;23.07;45.71;102163.47;4426635;32;20068;-67
2021/08/31 01:31:07;;;;;;;11.07;5.85;;;;;;;23.16;45.70;102164.16;4423631;32;20137;-67
2021/08/31 01:33:35;;;;;;;8.63;5.15;;;;;;;22.85;45.85;102158.03;4426339;32;20521;-67
2021/08/31 01:36:22;;;;;;;10.85;5.72;;;;;;;23.20;45.35;102166.84;4423824;32;20438;-67
2021/08/31 01:38:57;;;;;;;8.15;4.90;;;;;;;23.33;44.95;102173.94;4424954;32;20060;-67
2021/08/31 01:41:24;;;;;;;6.22;4.05;;;;;;;23.51;44.75;102172.97;4424948;32;20053;-67
2021/08/31 01:43:51;;;;;;;7.97;4.40;;;;;;;23.51;45.06;102170.09;4424876;32;20042;-67
2021/08/31 01:46:17;;;;;;;8.95;3.42;;;;;;;23.05;46.10;102178.31;4423071;32;20104;-67
2021/08/31 01:48:43;;;;;;;9.77;4.15;;;;;;;23.31;45.68;102169.94;4422803;32;20090;-67
2021/08/31 01:51:09;;;;;;;9.80;5.15;;;;;;;22.84;47.24;102170.00;4421875;32;20071;-67
2021/08/31 01:53:36;;;;;;;6.28;3.70;;;;;;;22.89;47.01;102169.34;4422496;32;20046;-67
2021/08/31 01:56:02;;;;;;;5.57;3.95;;;;;;;23.19;46.74;102171.78;4421407;32;20078;-67
2021/08/31 01:58:28;;;;;;;7.68;4.45;;;;;;;23.06;46.84;102164.72;4422785;32;20422;-67
2021/08/31 02:00:53;;;;;;;6.20;4.12;;;;;;;22.76;47.61;102169.59;4422263;32;20067;-67
2021/08/31 02:03:19;;;;;;;8.48;3.95;;;;;;;22.73;47.42;102173.44;4425320;32;20022;-67
2021/08/31 02:05:45;;;;;;;8.82;4.60;;;;;;;22.68;47.67;102174.12;4426271;32;20037;-67
2021/08/31 02:08:11;;;;;;;6.68;4.00;;;;;;;22.70;47.84;102173.63;4423143;32;20490;-67
2021/08/31 02:10:37;;;;;;;6.40;4.07;;;;;;;22.72;47.91;102171.84;4419677;32;20358;-68
2021/08/31 02:13:03;;;;;;;7.25;4.05;;;;;;;22.69;47.88;102177.75;4423283;32;20078;-67
2021/08/31 02:15:31;;;;;;;8.40;4.05;;;;;;;22.66;48.38;102178.75;4429466;32;20097;-67
2021/08/31 02:17:57;;;;;;;7.20;4.43;;;;;;;22.42;48.42;102178.69;4424651;32;20061;-67
2021/08/31 02:20:23;;;;;;;7.55;4.68;;;;;;;22.52;48.68;102180.25;4420283;32;20392;-67
2021/08/31 02:22:49;;;;;;;11.52;4.93;;;;;;;22.59;48.67;102191.41;4421716;32;20034;-67
2021/08/31 02:25:14;;;;;;;10.68;5.62;;;;;;;22.63;48.27;102191.19;4427048;32;20038;-67
2021/08/31 02:27:40;;;;;;;7.30;4.53;;;;;;;22.81;47.98;102191.88;4423976;32;20070;-67
2021/08/31 02:30:07;;;;;;;8.48;4.87;;;;;;;22.62;47.98;102199.03;4421573;32;20059;-67
2021/08/31 02:32:33;;;;;;;9.32;4.90;;;;;;;22.49;48.23;102186.16;4425048;32;20490;-67
2021/08/31 02:34:59;;;;;;;9.27;4.90;;;;;;;22.38;48.29;102192.44;4421184;32;20042;-67
2021/08/31 02:37:24;;;;;;;13.10;5.12;;;;;;;22.52;47.75;102188.88;4423840;32;20099;-68
2021/08/31 02:39:50;;;;;;;11.20;4.68;;;;;;;22.52;48.08;102196.69;4423766;32;20114;-68
2021/08/31 02:42:16;;;;;;;9.70;4.93;;;;;;;22.41;47.80;102188.59;4422271;32;20041;-67
2021/08/31 02:44:42;;;;;;;8.40;4.87;;;;;;;22.74;47.45;102182.84;4424484;32;20374;-67
2021/08/31 02:47:08;;;;;;;13.98;6.03;;;;;;;22.64;47.30;102195.66;4423018;32;20127;-67
2021/08/31 02:49:34;;;;;;;10.07;5.12;;;;;;;22.51;47.86;102193.03;4421155;32;20181;-67
2021/08/31 02:51:59;;;;;;;11.70;5.70;;;;;;;22.64;47.09;102187.84;4421521;32;20053;-67
2021/08/31 02:54:25;;;;;;;13.62;5.50;;;;;;;22.50;47.25;102185.72;4425721;32;20114;-67
2021/08/31 02:56:51;;;;;;;11.27;5.95;;;;;;;22.64;47.04;102181.31;4422989;32;20148;-67
2021/08/31 02:59:17;;;;;;;10.48;5.43;;;;;;;22.46;47.16;102179.31;4422955;32;20026;-67
2021/08/31 03:02:13;;;;;;;11.38;5.68;;;;;;;22.28;47.31;102185.16;4422786;32;20069;-67
2021/08/31 03:04:28;;;;;;;13.20;6.32;;;;;;;22.13;47.82;102172.81;4426469;32;20077;-68
2021/08/31 03:06:54;;;;;;;12.95;6.20;;;;;;;22.41;47.31;102188.59;4423620;32;20076;-67
2021/08/31 03:09:19;;;;;;;10.63;6.22;;;;;;;22.65;46.77;102177.16;4423038;32;20089;-67
2021/08/31 03:11:45;;;;;;;10.85;5.90;;;;;;;22.43;47.27;102174.53;4424874;32;21311;-67
2021/08/31 03:14:11;;;;;;;11.88;6.57;;;;;;;22.63;46.62;102182.59;4421366;32;20538;-67
2021/08/31 03:16:38;;;;;;;11.75;6.05;;;;;;;22.85;46.49;102177.31;4424069;32;20034;-67
2021/08/31 03:19:05;;;;;;;12.63;6.30;;;;;;;23.12;46.02;102177.12;4425051;32;20046;-67
2021/08/31 03:21:30;;;;;;;10.20;6.57;;;;;;;23.05;45.81;102180.38;4423879;32;20123;-67
2021/08/31 03:23:56;;;;;;;10.18;6.37;;;;;;;22.94;45.88;102191.62;4420901;32;20449;-67
2021/08/31 03:26:21;;;;;;;10.32;6.28;;;;;;;23.10;45.58;102186.22;4419070;32;20216;-67
2021/08/31 03:28:47;;;;;;;9.88;5.78;;;;;;;23.13;45.35;102187.31;4423186;32;20364;-68
2021/08/31 03:31:13;;;;;;;12.88;5.32;;;;;;;23.14;45.57;102188.91;4425191;32;20048;-68
2021/08/31 03:33:39;;;;;;;16.30;5.70;;;;;;;22.86;45.44;102187.53;4423379;32;20037;-68
2021/08/31 03:36:06;;;;;;;9.15;5.20;;;;;;;23.08;45.36;102180.19;4421527;32;20065;-68
2021/08/31 03:38:32;;;;;;;11.60;5.32;;;;;;;23.04;45.16;102185.31;4421831;32;20058;-68
2021/08/31 03:40:57;;;;;;;11.02;5.07;;;;;;;23.28;44.60;102196.78;4424498;32;20088;-68
2021/08/31 03:43:23;;;;;;;13.75;5.22;;;;;;;23.15;44.61;102193.38;4420776;32;20064;-68
2021/08/31 03:45:48;;;;;;;12.60;5.70;;;;;;;23.17;44.30;102190.81;4425993;32;20471;-68
2021/08/31 03:48:14;;;;;;;12.82;4.82;;;;;;;23.16;44.31;102189.19;4420364;32;20101;-68
2021/08/31 03:50:40;;;;;;;8.18;4.60;;;;;;;23.13;44.30;102190.19;4421726;32;20081;-68
2021/08/31 03:53:05;;;;;;;7.47;4.43;;;;;;;23.16;44.46;102189.19;4424763;32;20106;-68
2021/08/31 03:55:31;;;;;;;11.27;5.12;;;;;;;23.14;44.40;102189.69;4422710;32;20084;-68
2021/08/31 03:57:56;;;;;;;8.88;4.82;;;;;;;23.21;44.33;102195.09;4422976;32;20056;-68
2021/08/31 04:00:22;;;;;;;7.43;4.53;;;;;;;22.90;43.87;102191.81;4423381;32;20133;-67
2021/08/31 04:02:48;;;;;;;9.15;4.30;;;;;;;23.30;43.72;102191.34;4422123;32;20528;-67
2021/08/31 04:05:13;;;;;;;13.90;4.78;;;;;;;23.03;43.81;102192.34;4426358;32;20426;-67
2021/08/31 04:07:39;;;;;;;9.52;4.62;;;;;;;22.94;44.33;102191.62;4419184;32;20081;-67
2021/08/31 04:10:06;;;;;;;10.02;4.68;;;;;;;23.05;44.16;102191.88;4425959;32;20045;-67
2021/08/31 04:12:32;;;;;;;14.55;4.82;;;;;;;23.14;44.00;102186.81;4421715;32;20065;-67
2021/08/31 04:14:57;;;;;;;11.50;4.68;;;;;;;23.04;44.43;102193.94;4425441;32;20458;-67
2021/08/31 04:17:24;;;;;;;10.55;3.95;;;;;;;23.18;43.67;102193.19;4425731;32;20105;-67
2021/08/31 04:19:50;;;;;;;9.18;3.95;;;;;;;23.26;43.33;102196.50;4421858;32;20057;-67
2021/08/31 04:22:15;;;;;;;12.90;3.87;;;;;;;23.18;43.57;102189.50;4419167;32;20133;-67
2021/08/31 04:24:41;;;;;;;15.18;4.15;;;;;;;23.37;43.20;102197.50;4420340;32;20084;-67
2021/08/31 04:27:06;;;;;;;6.90;3.87;;;;;;;23.35;43.15;102193.56;4420256;32;20072;-67
2021/08/31 04:29:32;;;;;;;6.78;3.72;;;;;;;23.15;43.28;102193.38;4419004;32;20397;-67
2021/08/31 04:31:58;;;;;;;8.98;3.95;;;;;;;23.02;43.58;102204.31;4420951;32;20072;-67
2021/08/31 04:34:24;;;;;;;8.55;4.10;;;;;;;22.94;44.20;102212.53;4425468;32;20075;-67
2021/08/31 04:36:50;;;;;;;13.23;4.45;;;;;;;22.96;44.35;102203.41;4423887;32;20742;-67
2021/08/31 04:39:16;;;;;;;12.95;4.35;;;;;;;22.80;44.66;102207.50;4425098;32;20470;-67
2021/08/31 04:41:41;;;;;;;6.72;4.07;;;;;;;22.65;44.81;102212.41;4426606;32;20077;-68
2021/08/31 04:44:07;;;;;;;11.77;4.53;;;;;;;22.57;44.40;102210.34;4423468;32;20072;-68
2021/08/31 04:46:33;;;;;;;10.13;4.20;;;;;;;22.85;44.16;102206.84;4425522;32;20706;-68
2021/08/31 04:49:02;;;;;;;11.12;4.30;;;;;;;22.93;43.73;102210.13;4422288;32;20098;-68
2021/08/31 04:51:27;;;;;;;13.05;4.28;;;;;;;22.93;43.94;102210.94;4425722;32;20037;-68
2021/08/31 04:53:53;;;;;;;7.78;4.20;;;;;;;23.25;43.27;102215.00;4423421;32;20107;-68
2021/08/31 04:56:19;;;;;;;10.68;3.97;;;;;;;22.92;43.98;102209.34;4422616;32;20042;-68
2021/08/31 04:58:45;;;;;;;7.00;3.60;;;;;;;23.21;43.24;102215.19;4424656;32;20045;-68
2021/08/31 05:01:10;;;;;;;9.60;4.07;;;;;;;23.09;43.35;102221.19;4423172;32;20646;-68
2021/08/31 05:03:37;;;;;;;7.72;4.65;;;;;;;23.21;42.99;102212.31;4421414;32;20093;-68
2021/08/31 05:06:03;;;;;;;13.40;4.07;;;;;;;23.34;42.89;102217.81;4427732;32;20037;-68
2021/08/31 05:08:28;;;;;;;16.92;4.07;;;;;;;23.12;43.36;102220.19;4424646;32;20073;-68
2021/08/31 05:10:54;;;;;;;8.13;4.10;;;;;;;22.72;44.07;102226.37;4420937;32;20030;-68
2021/08/31 05:13:20;;;;;;;9.20;4.40;;;;;;;22.95;43.35;102227.69;4425020;32;20194;-68
2021/08/31 05:15:46;;;;;;;10.88;3.97;;;;;;;22.81;43.72;102222.66;4422673;32;20486;-68
2021/08/31 05:18:11;;;;;;;10.27;4.18;;;;;;;22.88;43.55;102223.09;4423198;32;20473;-68
2021/08/31 05:20:38;;;;;;;7.35;4.20;;;;;;;23.06;43.28;102222.16;4426354;32;20454;-68
2021/08/31 05:23:04;;;;;;;10.65;4.18;;;;;;;23.01;43.01;102222.84;4425473;32;20049;-68
2021/08/31 05:25:29;;;;;;;11.50;4.45;;;;;;;23.07;43.19;102226.63;4427899;32;20072;-68
2021/08/31 05:27:55;;;;;;;11.40;4.20;;;;;;;22.74;43.73;102226.66;4425744;32;20093;-68
2021/08/31 05:30:21;;;;;;;9.70;3.92;;;;;;;22.97;43.39;102230.84;4424481;32;20080;-68
2021/08/31 05:32:47;;;;;;;10.05;3.72;;;;;;;23.05;43.35;102230.00;4423276;32;20446;-68
2021/08/31 05:35:12;;;;;;;9.63;4.05;;;;;;;22.97;43.27;102233.72;4424762;32;20034;-68
2021/08/31 05:37:39;;;;;;;11.60;3.87;;;;;;;23.16;42.93;102235.97;4424152;32;20138;-68
2021/08/31 05:40:07;;;;;;;9.23;3.62;;;;;;;23.26;42.81;102242.47;4423379;32;20073;-68
2021/08/31 05:42:33;;;;;;;10.68;4.20;;;;;;;23.33;42.68;102240.03;4422438;32;20435;-68
2021/08/31 05:44:59;;;;;;;12.40;3.92;;;;;;;23.15;42.89;102248.75;4424550;32;20091;-68
2021/08/31 05:47:25;;;;;;;10.93;3.80;;;;;;;23.36;42.27;102241.91;4424631;32;20435;-68
2021/08/31 05:49:51;;;;;;;10.18;3.72;;;;;;;23.27;42.36;102252.66;4425452;32;20033;-68
2021/08/31 05:52:16;;;;;;;7.90;3.65;;;;;;;23.09;43.20;102253.56;4423578;32;20068;-68
2021/08/31 05:54:42;;;;;;;10.02;4.05;;;;;;;23.30;43.29;102255.38;4425066;32;20474;-68
2021/08/31 05:57:10;;;;;;;9.20;4.12;;;;;;;22.67;44.98;102254.97;4423888;32;20078;-68
2021/08/31 05:59:39;;;;;;;12.85;4.45;;;;;;;22.66;45.03;102257.03;4425971;32;20099;-68
2021/08/31 06:02:07;;;;;;;11.50;4.97;;;;;;;22.98;44.86;102267.69;4421825;32;20083;-68
2021/08/31 06:04:33;;;;;;;10.00;3.92;;;;;;;22.76;45.61;102254.88;4421354;32;20050;-68
2021/08/31 06:06:58;;;;;;;8.10;4.78;;;;;;;22.67;45.61;102255.75;4424593;32;20029;-68
2021/08/31 06:09:24;;;;;;;8.25;4.55;;;;;;;22.71;46.12;102267.06;4422388;32;20096;-68
2021/08/31 06:11:51;;;;;;;13.00;4.57;;;;;;;22.62;46.19;102261.34;4420785;32;20072;-68
2021/08/31 06:14:17;;;;;;;12.27;4.35;;;;;;;22.50;46.32;102250.91;4426062;32;20042;-68
2021/08/31 06:16:43;;;;;;;15.48;5.10;;;;;;;22.59;46.31;102262.34;4422182;32;20087;-68
2021/08/31 06:19:09;;;;;;;12.93;4.32;;;;;;;22.69;46.14;102264.66;4422468;32;20088;-68
2021/08/31 06:21:35;;;;;;;13.85;4.75;;;;;;;22.53;46.32;102267.94;4418334;32;20050;-68
2021/08/31 06:24:00;;;;;;;9.35;4.25;;;;;;;22.64;46.25;102265.31;4422726;32;20348;-68
2021/08/31 06:26:28;;;;;;;11.75;5.05;;;;;;;22.78;45.76;102261.75;4419902;32;20071;-67
2021/08/31 06:28:53;;;;;;;9.75;4.32;;;;;;;22.47;46.66;102275.59;4423998;32;20089;-68
2021/08/31 06:31:20;;;;;;;11.32;5.28;;;;;;;22.71;45.78;102267.06;4419397;32;21174;-68
2021/08/31 06:33:46;;;;;;;10.60;5.03;;;;;;;22.71;46.08;102270.72;4420237;32;20070;-68
2021/08/31 06:36:14;;;;;;;10.18;5.25;;;;;;;22.64;46.17;102265.31;4421633;32;20061;-68
2021/08/31 06:38:40;;;;;;;20.92;8.38;;;;;;;22.75;46.38;102273.41;4422604;32;20041;-68
2021/08/31 06:41:06;;;;;;;13.70;5.20;;;;;;;22.92;46.47;102275.38;4421301;32;20511;-68
2021/08/31 06:43:32;;;;;;;16.35;8.40;;;;;;;22.96;45.75;102278.06;4423718;32;20249;-68
2021/08/31 06:45:58;;;;;;;9.90;5.68;;;;;;;22.81;46.32;102275.13;4420451;32;20129;-69
2021/08/31 06:48:24;;;;;;;14.07;8.00;;;;;;;22.83;45.85;102280.38;4421005;32;20163;-68
2021/08/31 06:50:50;;;;;;;15.40;8.55;;;;;;;22.86;45.91;102280.19;4422232;32;20046;-68
2021/08/31 06:53:16;;;;;;;10.90;6.30;;;;;;;22.98;45.97;102284.91;4421402;32;20617;-68
2021/08/31 06:55:42;;;;;;;16.40;7.20;;;;;;;22.92;45.87;102289.72;4420039;32;20088;-68
2021/08/31 06:58:08;;;;;;;12.90;7.97;;;;;;;22.14;46.38;102289.09;4422377;32;20056;-68
2021/08/31 07:00:34;;;;;;;12.05;7.55;;;;;;;23.09;46.08;102282.28;4420451;32;20090;-68
2021/08/31 07:03:00;;;;;;;12.02;6.78;;;;;;;22.88;45.87;102285.44;4420827;32;20100;-68
2021/08/31 07:05:26;;;;;;;19.80;6.85;;;;;;;23.18;45.04;102290.03;4418279;32;20444;-68
2021/08/31 07:07:52;;;;;;;19.35;6.95;;;;;;;22.93;45.59;102294.22;4420402;32;20073;-68
2021/08/31 07:10:18;;;;;;;14.70;6.55;;;;;;;23.37;44.79;102291.53;4423759;32;20042;-68
2021/08/31 07:12:44;;;;;;;15.25;7.43;;;;;;;23.01;44.82;102294.66;4422770;32;20085;-68
2021/08/31 07:15:11;;;;;;;15.45;8.70;;;;;;;23.44;43.92;102296.91;4422476;32;20430;-68
2021/08/31 07:17:37;;;;;;;15.20;7.03;;;;;;;23.44;44.27;102302.66;4420740;32;20089;-68
2021/08/31 07:20:04;;;;;;;16.02;6.80;;;;;;;23.61;43.89;102300.91;4423875;32;20424;-68
2021/08/31 07:22:30;;;;;;;10.15;6.00;;;;;;;23.96;43.24;102310.50;4417570;32;20094;-68
2021/08/31 07:24:55;;;;;;;20.23;12.57;;;;;;;23.90;42.73;102298.06;4417314;32;20093;-68
2021/08/31 07:27:21;;;;;;;16.02;6.10;;;;;;;23.76;43.52;102304.63;4422412;32;20069;-68
2021/08/31 07:29:47;;;;;;;11.85;6.03;;;;;;;24.09;42.44;102307.38;4420946;32;20340;-68
2021/08/31 07:32:13;;;;;;;9.23;5.25;;;;;;;24.36;41.89;102295.56;4422027;32;20061;-68
2021/08/31 07:34:39;;;;;;;9.18;4.82;;;;;;;24.44;41.87;102306.16;4419597;32;20091;-68
2021/08/31 07:37:06;;;;;;;10.40;5.15;;;;;;;24.62;41.24;102305.94;4422630;32;20494;-68
2021/08/31 07:39:32;;;;;;;10.10;4.95;;;;;;;24.76;41.01;102304.34;4421154;32;20117;-68
2021/08/31 07:41:59;;;;;;;10.27;4.68;;;;;;;25.20;40.29;102300.03;4419190;32;20034;-68
2021/08/31 07:44:25;;;;;;;10.02;4.68;;;;;;;25.12;40.19;102298.84;4420891;32;20093;-68
2021/08/31 07:46:51;;;;;;;8.32;3.87;;;;;;;25.38;39.62;102304.75;4424401;32;20025;-68
2021/08/31 07:49:18;;;;;;;8.27;4.03;;;;;;;24.97;40.04;102309.62;4420334;32;20133;-68
2021/08/31 07:51:45;;;;;;;10.07;3.53;;;;;;;24.93;40.11;102305.38;4422601;32;20045;-68
2021/08/31 07:54:12;;;;;;;8.65;3.37;;;;;;;24.89;40.32;102304.81;4419664;32;20084;-68
2021/08/31 07:56:38;;;;;;;8.02;3.80;;;;;;;25.11;39.72;102313.78;4420727;32;20038;-68
2021/08/31 07:59:05;;;;;;;9.65;4.30;;;;;;;24.88;40.16;102309.75;4420898;32;20121;-68
2021/08/31 08:01:31;;;;;;;8.07;4.30;;;;;;;25.47;39.24;102315.31;4418992;32;20041;-68
2021/08/31 08:03:58;;;;;;;8.55;4.18;;;;;;;25.18;39.74;102327.75;4420654;32;20182;-68
2021/08/31 08:06:26;;;;;;;7.68;4.40;;;;;;;25.26;39.35;102317.38;4418407;32;20030;-68
2021/08/31 08:08:52;;;;;;;7.47;4.65;;;;;;;25.10;39.61;102312.97;4419630;32;20093;-68
2021/08/31 08:11:18;;;;;;;12.90;4.85;;;;;;;25.19;39.41;102321.47;4418817;32;20651;-68
2021/08/31 08:13:44;;;;;;;6.78;4.50;;;;;;;25.43;38.91;102326.28;4420294;32;20068;-68
2021/08/31 08:16:09;;;;;;;8.30;4.62;;;;;;;25.54;38.71;102321.44;4422797;32;20038;-68
2021/08/31 08:18:35;;;;;;;7.15;4.20;;;;;;;25.61;38.83;102328.87;4425021;32;20098;-68
2021/08/31 08:21:01;;;;;;;10.30;4.32;;;;;;;25.95;38.13;102331.63;4418007;32;20068;-68
2021/08/31 08:23:28;;;;;;;8.38;4.50;;;;;;;25.77;37.84;102326.16;4421030;32;20042;-67
2021/08/31 08:25:55;;;;;;;11.32;5.03;;;;;;;25.95;37.67;102337.41;4418763;32;20077;-66
2021/08/31 08:28:23;;;;;;;8.15;4.07;;;;;;;25.77;38.66;102346.38;4419720;32;20042;-67
2021/08/31 08:30:51;;;;;;;7.65;3.83;;;;;;;25.62;38.98;102342.00;4421269;32;20124;-67
2021/08/31 08:33:17;;;;;;;7.43;4.05;;;;;;;25.37;39.39;102347.19;4422010;32;20617;-67
2021/08/31 08:35:42;;;;;;;4.75;4.00;;;;;;;25.55;39.13;102346.09;4423888;32;20050;-67
2021/08/31 08:38:08;;;;;;;8.65;4.18;;;;;;;25.54;39.79;102338.75;4425185;32;20098;-67
2021/08/31 08:40:35;;;;;;;10.43;4.32;;;;;;;25.98;38.64;102353.72;4423570;32;20069;-67
2021/08/31 08:43:04;;;;;;;10.32;5.20;;;;;;;26.05;38.78;102353.28;4424708;32;20382;-67
2021/08/31 08:45:30;;;;;;;10.70;5.15;;;;;;;26.29;37.87;102355.91;4423542;32;20400;-67
2021/08/31 08:47:55;;;;;;;9.15;4.68;;;;;;;26.07;38.83;102370.06;4426496;32;20100;-69
2021/08/31 08:50:24;;;;;;;8.10;4.47;;;;;;;26.19;38.39;102369.69;4422548;32;20145;-67
2021/08/31 08:52:50;;;;;;;7.50;4.32;;;;;;;26.09;38.92;102367.50;4422213;32;20081;-68
2021/08/31 08:55:16;;;;;;;12.00;4.50;;;;;;;25.60;40.29;102364.75;4419862;32;20076;-67
2021/08/31 08:57:43;;;;;;;8.70;3.95;;;;;;;25.51;40.92;102371.47;4423069;32;20103;-67
2021/08/31 09:00:11;;;;;;;9.75;3.80;;;;;;;24.91;41.39;102362.72;4421002;32;20037;-67
2021/08/31 09:02:43;;;;;;;9.93;3.80;;;;;;;25.02;41.56;102357.91;4417738;32;20061;-67
2021/08/31 09:05:11;;;;;;;6.75;3.70;;;;;;;25.26;41.78;102355.66;4417719;32;20465;-67
2021/08/31 09:07:39;;;;;;;6.07;3.72;;;;;;;25.24;41.72;102358.25;4424987;32;20088;-66
2021/08/31 09:10:23;;;;;;;5.55;3.60;;;;;;;25.35;41.26;102354.75;4418694;32;20328;-67
2021/08/31 09:12:52;;;;;;;9.48;3.92;;;;;;;25.35;40.52;102352.66;4423402;32;20411;-67
2021/08/31 09:15:22;;;;;;;12.05;4.87;;;;;;;25.62;40.06;102348.56;4424398;32;20037;-67
2021/08/31 09:21:02;;;;;;;6.75;3.37;;;;;;;25.80;39.70;102356.88;3978488;32;15149951;-68
2021/08/31 09:23:31;;;;;;;7.90;3.20;;;;;;;25.80;39.70;102356.88;4433086;32;20098;-67
2021/08/31 09:26:06;;;;;;;6.32;3.53;;;;;;;25.69;39.70;102348.13;4432967;32;20100;-68
2021/08/31 09:28:36;;;;;;;6.47;3.15;;;;;;;25.80;40.49;102359.78;4432360;32;20057;-67
2021/08/31 09:33:41;;;;;;;5.68;3.45;;;;;;;27.01;37.44;102375.47;3989998;32;15024657;-68
2021/08/31 09:36:24;;;;;;;7.97;4.07;;;;;;;27.01;37.44;102375.47;4450461;32;20092;-68
2021/08/31 09:44:07;;;;;;;7.57;4.37;;;;;;;26.31;37.57;102379.25;3986031;32;15023835;-68
2021/08/31 09:46:57;;;;;;;9.15;4.82;;;;;;;26.31;37.57;102379.25;4436341;32;20033;-68
2021/08/31 09:52:02;;;;;;;11.82;6.28;;;;;;;26.59;37.81;102363.78;3977016;32;15023652;-67
2021/08/31 09:54:28;;;;;;;13.02;5.47;;;;;;;26.59;37.81;102363.78;4435199;32;20108;-67
2021/08/31 09:56:54;;;;;;;9.15;4.75;;;;;;;26.26;37.57;102375.00;4433225;32;20068;-67
2021/08/31 09:59:24;;;;;;;11.55;4.97;;;;;;;26.49;36.98;102365.28;4433536;32;20165;-68
2021/08/31 10:01:52;;;;;;;9.77;4.20;;;;;;;26.95;36.29;102363.06;4434855;32;20145;-67
2021/08/31 10:04:20;;;;;;;16.92;3.80;;;;;;;26.38;37.10;102364.38;4433454;32;20068;-67
2021/08/31 10:06:47;;;;;;;13.77;4.53;;;;;;;26.58;37.26;102372.97;4419220;32;20117;-67
2021/08/31 10:09:15;;;;;;;15.57;4.28;;;;;;;26.92;36.20;102369.06;4427861;32;20401;-67
2021/08/31 10:11:41;;;;;;;10.38;4.62;;;;;;;27.57;35.20;102367.12;4436658;32;20049;-67
2021/08/31 10:14:10;;;;;;;11.23;4.45;;;;;;;27.57;34.89;102376.59;4435802;32;20475;-67
2021/08/31 10:16:36;;;;;;;14.55;5.10;;;;;;;28.40;33.62;102368.19;4431586;32;20025;-68
2021/08/31 10:19:02;;;;;;;9.02;3.65;;;;;;;27.86;33.88;102366.75;4435762;32;20080;-68
2021/08/31 10:21:28;;;;;;;7.90;3.60;;;;;;;27.77;33.67;102376.44;4432511;32;20072;-68
2021/08/31 10:23:54;;;;;;;9.98;3.90;;;;;;;28.12;33.53;102368.16;4430423;32;20069;-68
2021/08/31 10:31:54;;;;;;;7.75;3.70;;;;;;;29.90;30.57;102369.56;3983350;32;15023863;-69
2021/08/31 10:34:40;;;;;;;7.25;3.60;;;;;;;29.90;30.57;102369.56;4436479;32;20055;-68
2021/08/31 10:37:09;;;;;;;11.60;3.80;;;;;;;29.97;30.12;102369.78;4435037;32;20090;-67
2021/08/31 10:45:04;;;;;;;12.75;4.05;;;;;;;28.20;33.08;102380.00;3982510;32;15029362;-67
2021/08/31 10:47:32;;;;;;;12.68;3.30;;;;;;;28.20;33.08;102380.00;4437394;32;20092;-67
2021/08/31 10:58:04;;;;;;;14.18;4.10;;;;;;;27.04;35.74;102380.22;3979341;32;15025630;-69
2021/08/31 11:03:06;;;;;;;12.40;4.40;;;;;;;28.39;33.28;102376.09;3956752;32;15723647;-68
2021/08/31 11:05:34;;;;;;;14.73;6.15;;;;;;;28.39;33.28;102376.09;4415535;32;20041;-68
2021/08/31 11:10:38;;;;;;;12.27;3.78;;;;;;;30.17;29.65;102383.94;3955241;32;15725769;-68
2021/08/31 11:15:47;;;;;;;13.32;3.60;;;;;;;30.17;29.20;102386.84;3978628;32;15027040;-68
2021/08/31 11:18:16;;;;;;;12.73;3.92;;;;;;;30.17;29.20;102386.84;4433758;32;20029;-67
2021/08/31 11:20:47;;;;;;;9.48;4.10;;;;;;;29.54;29.63;102382.37;4432461;32;20064;-68
2021/08/31 11:23:19;;;;;;;6.00;2.53;;;;;;;29.01;30.43;102390.09;4434181;32;20073;-67
2021/08/31 11:25:48;;;;;;;11.05;3.58;;;;;;;29.23;29.86;102383.50;4434007;32;20414;-67
2021/08/31 11:28:17;;;;;;;9.80;3.10;;;;;;;28.71;30.84;102394.84;4434982;32;20030;-67
2021/08/31 11:36:06;;;;;;;9.00;3.20;;;;;;;28.53;31.01;102403.28;3985153;32;15024047;-68
2021/08/31 11:46:29;;;;;;;7.70;3.20;;;;;;;28.49;30.89;102400.63;4007913;31;15017332;-68
2021/08/31 11:49:32;;;;;;;6.55;3.00;;;;;;;28.49;30.89;102400.63;4466499;32;20029;-68
2021/08/31 11:52:01;;;;;;;8.18;3.17;;;;;;;28.68;30.22;102403.78;4464501;32;20096;-68
2021/08/31 11:54:31;;;;;;;10.02;4.18;;;;;;;28.96;29.87;102408.28;4463919;32;20028;-67
2021/08/31 11:57:00;;;;;;;8.32;4.37;;;;;;;29.10;29.55;102402.75;4463344;32;21174;-67
2021/08/31 11:59:39;;;;;;;8.90;4.03;;;;;;;29.41;29.24;102409.03;4467999;32;20479;-67
2021/08/31 12:07:37;;;;;;;12.70;4.18;;;;;;;30.11;29.11;102411.41;3984458;32;15024088;-67
2021/08/31 12:10:06;;;;;;;8.55;3.83;;;;;;;30.11;29.11;102411.41;4436774;32;20429;-67
2021/08/31 12:12:32;;;;;;;9.07;4.30;;;;;;;29.55;29.40;102407.16;4441938;32;20029;-67
2021/08/31 12:14:59;;;;;;;10.60;4.10;;;;;;;29.37;29.56;102417.22;4442029;32;20104;-67
2021/08/31 12:17:31;;;;;;;7.75;3.97;;;;;;;29.17;29.82;102410.94;4440302;32;20110;-67